sensor_id;sensor_type;location;lat;lon;timestamp;pressure;altitude;pressure_sealevel;temperature;humidity
36254;BME280;22291;52.250;21.228;2023-09-19T00:01:00;99658.59;;;19.31;72.99
36254;BME280;22291;52.250;21.228;2023-09-19T00:03:27;99658.75;;;19.29;73.15
36254;BME280;22291;52.250;21.228;2023-09-19T00:05:57;99661.48;;;19.25;73.24
36254;BME280;22291;52.250;21.228;2023-09-19T00:08:25;99655.22;;;19.25;73.21
36254;BME280;22291;52.250;21.228;2023-09-19T00:10:55;99654.98;;;19.20;73.53
36254;BME280;22291;52.250;21.228;2023-09-19T00:13:23;99654.97;;;19.16;73.88
36254;BME280;22291;52.250;21.228;2023-09-19T00:15:51;99656.70;;;19.11;73.87
36254;BME280;22291;52.250;21.228;2023-09-19T00:18:21;99656.09;;;19.08;74.12
36254;BME280;22291;52.250;21.228;2023-09-19T00:20:47;99655.30;;;19.04;74.30
36254;BME280;22291;52.250;21.228;2023-09-19T00:23:15;99656.05;;;19.01;74.40
36254;BME280;22291;52.250;21.228;2023-09-19T00:25:43;99657.02;;;18.99;74.53
36254;BME280;22291;52.250;21.228;2023-09-19T00:28:11;99647.22;;;18.98;74.65
36254;BME280;22291;52.250;21.228;2023-09-19T00:30:42;99648.78;;;18.95;74.90
36254;BME280;22291;52.250;21.228;2023-09-19T00:33:12;99655.20;;;18.93;75.00
36254;BME280;22291;52.250;21.228;2023-09-19T00:35:48;99657.55;;;18.91;74.97
36254;BME280;22291;52.250;21.228;2023-09-19T00:38:15;99654.19;;;18.88;75.18
36254;BME280;22291;52.250;21.228;2023-09-19T00:40:45;99652.42;;;18.86;75.53
36254;BME280;22291;52.250;21.228;2023-09-19T00:43:12;99642.27;;;18.87;75.56
36254;BME280;22291;52.250;21.228;2023-09-19T00:45:43;99653.23;;;18.87;75.73
36254;BME280;22291;52.250;21.228;2023-09-19T00:48:15;99644.79;;;18.85;75.57
36254;BME280;22291;52.250;21.228;2023-09-19T00:50:45;99645.17;;;18.84;75.80
36254;BME280;22291;52.250;21.228;2023-09-19T00:53:19;99644.73;;;18.82;75.79
36254;BME280;22291;52.250;21.228;2023-09-19T00:55:51;99644.34;;;18.80;75.83
36254;BME280;22291;52.250;21.228;2023-09-19T00:58:20;99639.23;;;18.78;75.85
36254;BME280;22291;52.250;21.228;2023-09-19T01:00:48;99639.02;;;18.77;75.99
36254;BME280;22291;52.250;21.228;2023-09-19T01:03:15;99629.63;;;18.75;76.03
36254;BME280;22291;52.250;21.228;2023-09-19T01:05:44;99636.27;;;18.74;76.44
36254;BME280;22291;52.250;21.228;2023-09-19T01:08:10;99632.75;;;18.73;76.52
36254;BME280;22291;52.250;21.228;2023-09-19T01:10:41;99626.05;;;18.71;76.49
36254;BME280;22291;52.250;21.228;2023-09-19T01:19:26;99632.27;;;18.64;77.00
36254;BME280;22291;52.250;21.228;2023-09-19T01:21:40;99619.91;;;18.60;76.94
36254;BME280;22291;52.250;21.228;2023-09-19T01:27:29;99615.98;;;18.54;77.46
36254;BME280;22291;52.250;21.228;2023-09-19T01:30:13;99612.03;;;18.52;77.33
36254;BME280;22291;52.250;21.228;2023-09-19T01:32:43;99599.68;;;18.48;77.58
36254;BME280;22291;52.250;21.228;2023-09-19T01:35:11;99604.94;;;18.47;77.71
36254;BME280;22291;52.250;21.228;2023-09-19T01:37:39;99602.39;;;18.44;77.82
36254;BME280;22291;52.250;21.228;2023-09-19T01:40:10;99598.45;;;18.42;77.72
36254;BME280;22291;52.250;21.228;2023-09-19T01:42:55;99593.19;;;18.43;78.23
36254;BME280;22291;52.250;21.228;2023-09-19T01:45:47;99595.92;;;18.43;78.21
36254;BME280;22291;52.250;21.228;2023-09-19T01:51:37;99594.56;;;18.43;78.34
36254;BME280;22291;52.250;21.228;2023-09-19T01:54:11;99594.34;;;18.42;78.22
36254;BME280;22291;52.250;21.228;2023-09-19T01:56:51;99586.72;;;18.41;78.63
36254;BME280;22291;52.250;21.228;2023-09-19T01:59:26;99585.33;;;18.38;78.46
36254;BME280;22291;52.250;21.228;2023-09-19T02:01:58;99583.74;;;18.37;78.63
36254;BME280;22291;52.250;21.228;2023-09-19T02:04:27;99589.59;;;18.35;78.43
36254;BME280;22291;52.250;21.228;2023-09-19T02:06:53;99587.45;;;18.35;78.49
36254;BME280;22291;52.250;21.228;2023-09-19T02:09:20;99581.97;;;18.35;78.78
36254;BME280;22291;52.250;21.228;2023-09-19T02:11:46;99586.67;;;18.34;78.63
36254;BME280;22291;52.250;21.228;2023-09-19T02:14:14;99579.83;;;18.34;78.71
36254;BME280;22291;52.250;21.228;2023-09-19T02:16:40;99583.34;;;18.35;78.78
36254;BME280;22291;52.250;21.228;2023-09-19T02:19:09;99582.56;;;18.34;78.83
36254;BME280;22291;52.250;21.228;2023-09-19T02:21:35;99582.56;;;18.34;78.92
36254;BME280;22291;52.250;21.228;2023-09-19T02:24:01;99581.75;;;18.34;78.91
36254;BME280;22291;52.250;21.228;2023-09-19T02:26:29;99571.77;;;18.32;79.09
36254;BME280;22291;52.250;21.228;2023-09-19T02:28:55;99571.96;;;18.29;79.09
36254;BME280;22291;52.250;21.228;2023-09-19T02:31:21;99575.48;;;18.29;79.15
36254;BME280;22291;52.250;21.228;2023-09-19T02:33:48;99569.22;;;18.29;79.34
36254;BME280;22291;52.250;21.228;2023-09-19T02:36:14;99568.42;;;18.28;79.35
36254;BME280;22291;52.250;21.228;2023-09-19T02:38:42;99564.31;;;18.28;79.51
36254;BME280;22291;52.250;21.228;2023-09-19T02:41:08;99555.70;;;18.26;79.78
36254;BME280;22291;52.250;21.228;2023-09-19T02:43:34;99562.73;;;18.24;79.63
36254;BME280;22291;52.250;21.228;2023-09-19T02:46:02;99551.56;;;18.23;79.52
36254;BME280;22291;52.250;21.228;2023-09-19T02:48:30;99551.56;;;18.23;80.42
36254;BME280;22291;52.250;21.228;2023-09-19T02:50:57;99541.38;;;18.20;79.81
36254;BME280;22291;52.250;21.228;2023-09-19T02:53:24;99530.05;;;18.21;79.82
36254;BME280;22291;52.250;21.228;2023-09-19T02:55:50;99533.97;;;18.20;79.74
36254;BME280;22291;52.250;21.228;2023-09-19T02:58:18;99538.45;;;18.19;79.83
36254;BME280;22291;52.250;21.228;2023-09-19T03:00:46;99540.97;;;18.18;80.06
36254;BME280;22291;52.250;21.228;2023-09-19T03:03:14;99532.95;;;18.15;80.23
36254;BME280;22291;52.250;21.228;2023-09-19T03:05:42;99541.16;;;18.15;80.24
36254;BME280;22291;52.250;21.228;2023-09-19T03:08:15;99539.95;;;18.13;80.16
36254;BME280;22291;52.250;21.228;2023-09-19T03:10:42;99530.75;;;18.11;80.28
36254;BME280;22291;52.250;21.228;2023-09-19T03:13:10;99528.02;;;18.11;80.39
36254;BME280;22291;52.250;21.228;2023-09-19T03:15:41;99533.89;;;18.13;80.41
36254;BME280;22291;52.250;21.228;2023-09-19T03:18:16;99533.48;;;18.11;80.67
36254;BME280;22291;52.250;21.228;2023-09-19T03:20:42;99534.08;;;18.10;80.96
36254;BME280;22291;52.250;21.228;2023-09-19T03:23:13;99521.14;;;18.07;80.59
36254;BME280;22291;52.250;21.228;2023-09-19T03:25:40;99516.64;;;18.05;80.81
36254;BME280;22291;52.250;21.228;2023-09-19T03:28:06;99511.16;;;18.05;80.84
36254;BME280;22291;52.250;21.228;2023-09-19T03:30:34;99494.32;;;18.00;80.86
36254;BME280;22291;52.250;21.228;2023-09-19T03:33:00;99497.44;;;17.98;80.81
36254;BME280;22291;52.250;21.228;2023-09-19T03:35:27;99504.84;;;17.98;80.73
36254;BME280;22291;52.250;21.228;2023-09-19T03:37:53;99512.86;;;17.97;81.00
36254;BME280;22291;52.250;21.228;2023-09-19T03:40:19;99513.63;;;17.97;80.73
36254;BME280;22291;52.250;21.228;2023-09-19T03:42:47;99524.82;;;18.02;80.63
36254;BME280;22291;52.250;21.228;2023-09-19T03:45:14;99519.72;;;18.00;80.85
36254;BME280;22291;52.250;21.228;2023-09-19T03:47:42;99520.31;;;18.00;80.54
36254;BME280;22291;52.250;21.228;2023-09-19T03:50:08;99513.05;;;17.98;80.92
36254;BME280;22291;52.250;21.228;2023-09-19T03:52:37;99511.27;;;17.96;81.30
36254;BME280;22291;52.250;21.228;2023-09-19T03:55:03;99512.02;;;17.92;80.81
36254;BME280;22291;52.250;21.228;2023-09-19T03:57:32;99504.59;;;17.89;81.22
36254;BME280;22291;52.250;21.228;2023-09-19T04:00:00;99503.14;;;17.86;81.14
36254;BME280;22291;52.250;21.228;2023-09-19T04:02:26;99502.36;;;17.85;81.25
36254;BME280;22291;52.250;21.228;2023-09-19T04:04:54;99501.95;;;17.83;81.38
36254;BME280;22291;52.250;21.228;2023-09-19T04:07:21;99507.02;;;17.81;81.20
36254;BME280;22291;52.250;21.228;2023-09-19T04:09:49;99506.22;;;17.81;81.60
36254;BME280;22291;52.250;21.228;2023-09-19T04:12:15;99505.22;;;17.79;81.80
36254;BME280;22291;52.250;21.228;2023-09-19T04:14:43;99508.73;;;17.76;81.81
36254;BME280;22291;52.250;21.228;2023-09-19T04:17:09;99502.83;;;17.74;81.91
36254;BME280;22291;52.250;21.228;2023-09-19T04:19:37;99503.80;;;17.72;81.89
36254;BME280;22291;52.250;21.228;2023-09-19T04:22:04;99497.55;;;17.71;82.04
36254;BME280;22291;52.250;21.228;2023-09-19T04:24:30;99492.45;;;17.70;82.29
36254;BME280;22291;52.250;21.228;2023-09-19T04:26:58;99492.23;;;17.69;82.83
36254;BME280;22291;52.250;21.228;2023-09-19T04:29:26;99482.27;;;17.67;82.54
36254;BME280;22291;52.250;21.228;2023-09-19T04:31:54;99480.70;;;17.66;83.04
36254;BME280;22291;52.250;21.228;2023-09-19T04:34:20;99478.97;;;17.67;82.59
36254;BME280;22291;52.250;21.228;2023-09-19T04:36:46;99476.42;;;17.68;82.72
36254;BME280;22291;52.250;21.228;2023-09-19T04:39:13;99476.27;;;17.71;82.79
36254;BME280;22291;52.250;21.228;2023-09-19T04:41:40;99471.20;;;17.73;82.98
36254;BME280;22291;52.250;21.228;2023-09-19T04:44:07;99461.44;;;17.76;83.03
36254;BME280;22291;52.250;21.228;2023-09-19T04:46:35;99461.65;;;17.77;82.83
36254;BME280;22291;52.250;21.228;2023-09-19T04:49:02;99468.36;;;17.83;83.11
36254;BME280;22291;52.250;21.228;2023-09-19T04:51:28;99466.02;;;17.85;82.91
36254;BME280;22291;52.250;21.228;2023-09-19T04:53:56;99470.77;;;17.88;82.87
36254;BME280;22291;52.250;21.228;2023-09-19T04:56:22;99464.52;;;17.91;82.66
36254;BME280;22291;52.250;21.228;2023-09-19T04:58:51;99468.68;;;17.95;82.76
36254;BME280;22291;52.250;21.228;2023-09-19T05:01:18;99464.60;;;17.98;82.94
36254;BME280;22291;52.250;21.228;2023-09-19T05:03:44;99461.48;;;18.00;82.74
36254;BME280;22291;52.250;21.228;2023-09-19T05:06:12;99461.91;;;18.05;82.80
36254;BME280;22291;52.250;21.228;2023-09-19T05:08:41;99460.78;;;18.10;82.69
36254;BME280;22291;52.250;21.228;2023-09-19T05:11:07;99455.52;;;18.15;82.80
36254;BME280;22291;52.250;21.228;2023-09-19T05:13:38;99454.98;;;18.19;82.75
36254;BME280;22291;52.250;21.228;2023-09-19T05:16:04;99458.72;;;18.24;82.61
36254;BME280;22291;52.250;21.228;2023-09-19T05:18:30;99459.36;;;18.31;82.55
36254;BME280;22291;52.250;21.228;2023-09-19T05:21:01;99459.56;;;18.35;82.34
36254;BME280;22291;52.250;21.228;2023-09-19T05:23:29;99454.10;;;18.39;82.15
36254;BME280;22291;52.250;21.228;2023-09-19T05:26:08;99453.77;;;18.44;82.30
36254;BME280;22291;52.250;21.228;2023-09-19T05:28:43;99454.37;;;18.51;82.05
36254;BME280;22291;52.250;21.228;2023-09-19T05:31:09;99458.91;;;18.56;81.96
36254;BME280;22291;52.250;21.228;2023-09-19T05:33:35;99453.08;;;18.61;81.78
36254;BME280;22291;52.250;21.228;2023-09-19T05:36:01;99452.31;;;18.64;81.73
36254;BME280;22291;52.250;21.228;2023-09-19T05:38:30;99449.38;;;18.67;81.57
36254;BME280;22291;52.250;21.228;2023-09-19T05:40:56;99455.85;;;18.72;81.63
36254;BME280;22291;52.250;21.228;2023-09-19T05:43:22;99449.61;;;18.75;81.46
36254;BME280;22291;52.250;21.228;2023-09-19T05:45:49;99458.62;;;18.79;81.46
36254;BME280;22291;52.250;21.228;2023-09-19T05:48:17;99452.20;;;18.81;81.15
36254;BME280;22291;52.250;21.228;2023-09-19T05:50:44;99453.01;;;18.85;81.15
36254;BME280;22291;52.250;21.228;2023-09-19T05:53:12;99454.59;;;18.87;80.97
36254;BME280;22291;52.250;21.228;2023-09-19T05:55:40;99455.16;;;18.90;80.74
36254;BME280;22291;52.250;21.228;2023-09-19T05:58:07;99450.67;;;18.91;80.62
36254;BME280;22291;52.250;21.228;2023-09-19T06:00:34;99446.02;;;18.95;80.53
36254;BME280;22291;52.250;21.228;2023-09-19T06:03:00;99444.26;;;18.97;80.52
36254;BME280;22291;52.250;21.228;2023-09-19T06:05:27;99436.81;;;19.01;80.48
36254;BME280;22291;52.250;21.228;2023-09-19T06:07:56;99450.34;;;19.03;80.35
36254;BME280;22291;52.250;21.228;2023-09-19T06:10:24;99451.13;;;19.08;80.38
36254;BME280;22291;52.250;21.228;2023-09-19T06:12:51;99448.19;;;19.10;80.23
36254;BME280;22291;52.250;21.228;2023-09-19T06:15:18;99453.30;;;19.15;80.21
36254;BME280;22291;52.250;21.228;2023-09-19T06:17:50;99444.91;;;19.21;80.18
36254;BME280;22291;52.250;21.228;2023-09-19T06:20:30;99444.91;;;19.29;80.29
36254;BME280;22291;52.250;21.228;2023-09-19T06:22:57;99448.85;;;19.35;79.92
36254;BME280;22291;52.250;21.228;2023-09-19T06:25:24;99447.09;;;19.40;79.66
36254;BME280;22291;52.250;21.228;2023-09-19T06:27:52;99445.52;;;19.43;79.25
36254;BME280;22291;52.250;21.228;2023-09-19T06:30:21;99459.27;;;19.46;79.22
36254;BME280;22291;52.250;21.228;2023-09-19T06:32:49;99455.15;;;19.50;79.16
36254;BME280;22291;52.250;21.228;2023-09-19T06:35:24;99458.46;;;19.53;79.00
36254;BME280;22291;52.250;21.228;2023-09-19T06:37:52;99462.78;;;19.57;79.12
36254;BME280;22291;52.250;21.228;2023-09-19T06:40:19;99468.48;;;19.62;78.87
36254;BME280;22291;52.250;21.228;2023-09-19T06:42:47;99464.75;;;19.64;78.41
36254;BME280;22291;52.250;21.228;2023-09-19T06:45:18;99470.84;;;19.67;78.54
36254;BME280;22291;52.250;21.228;2023-09-19T06:47:46;99480.05;;;19.72;78.39
36254;BME280;22291;52.250;21.228;2023-09-19T06:50:19;99486.94;;;19.76;78.56
36254;BME280;22291;52.250;21.228;2023-09-19T06:52:51;99492.25;;;19.82;78.24
36254;BME280;22291;52.250;21.228;2023-09-19T06:55:21;99497.34;;;19.87;78.12
36254;BME280;22291;52.250;21.228;2023-09-19T06:57:51;99497.34;;;19.91;77.69
36254;BME280;22291;52.250;21.228;2023-09-19T07:00:20;99500.86;;;19.91;77.48
36254;BME280;22291;52.250;21.228;2023-09-19T07:03:06;99496.75;;;19.91;77.44
36254;BME280;22291;52.250;21.228;2023-09-19T07:05:35;99496.95;;;19.96;77.72
36254;BME280;22291;52.250;21.228;2023-09-19T07:08:07;99490.30;;;20.01;77.41
36254;BME280;22291;52.250;21.228;2023-09-19T07:10:36;99499.30;;;20.08;77.82
36254;BME280;22291;52.250;21.228;2023-09-19T07:13:05;99500.09;;;20.20;78.17
36254;BME280;22291;52.250;21.228;2023-09-19T07:15:35;99492.03;;;20.35;77.51
36254;BME280;22291;52.250;21.228;2023-09-19T07:18:03;99494.92;;;20.58;79.36
36254;BME280;22291;52.250;21.228;2023-09-19T07:20:30;99488.78;;;20.83;77.31
36254;BME280;22291;52.250;21.228;2023-09-19T07:22:59;99487.92;;;21.01;76.98
36254;BME280;22291;52.250;21.228;2023-09-19T07:25:30;99495.27;;;21.29;77.41
36254;BME280;22291;52.250;21.228;2023-09-19T07:27:58;99487.53;;;21.47;76.13
36254;BME280;22291;52.250;21.228;2023-09-19T07:30:28;99501.70;;;21.75;75.01
36254;BME280;22291;52.250;21.228;2023-09-19T07:32:54;99501.69;;;22.01;75.66
36254;BME280;22291;52.250;21.228;2023-09-19T07:35:21;99506.87;;;22.41;74.52
36254;BME280;22291;52.250;21.228;2023-09-19T07:37:49;99518.85;;;22.65;73.18
36254;BME280;22291;52.250;21.228;2023-09-19T07:40:19;99517.22;;;22.86;72.71
36254;BME280;22291;52.250;21.228;2023-09-19T07:42:50;99517.97;;;23.09;71.20
36254;BME280;22291;52.250;21.228;2023-09-19T07:45:16;99525.38;;;23.31;69.39
36254;BME280;22291;52.250;21.228;2023-09-19T07:47:48;99523.69;;;23.26;68.08
36254;BME280;22291;52.250;21.228;2023-09-19T07:50:17;99518.19;;;23.22;68.41
36254;BME280;22291;52.250;21.228;2023-09-19T07:52:47;99529.61;;;23.24;67.81
36254;BME280;22291;52.250;21.228;2023-09-19T07:55:17;99521.09;;;23.11;67.31
36254;BME280;22291;52.250;21.228;2023-09-19T07:57:46;99522.75;;;23.02;67.51
36254;BME280;22291;52.250;21.228;2023-09-19T08:00:13;99528.91;;;22.98;67.49
36254;BME280;22291;52.250;21.228;2023-09-19T08:02:45;99527.53;;;22.98;67.71
36254;BME280;22291;52.250;21.228;2023-09-19T08:05:13;99528.30;;;23.17;68.68
36254;BME280;22291;52.250;21.228;2023-09-19T08:07:45;99523.91;;;23.66;70.25
36254;BME280;22291;52.250;21.228;2023-09-19T08:10:15;99522.78;;;24.26;68.90
36254;BME280;22291;52.250;21.228;2023-09-19T08:12:43;99526.14;;;24.49;66.46
36254;BME280;22291;52.250;21.228;2023-09-19T08:15:15;99527.60;;;24.57;64.76
36254;BME280;22291;52.250;21.228;2023-09-19T08:17:48;99530.84;;;24.40;64.47
36254;BME280;22291;52.250;21.228;2023-09-19T08:20:16;99530.23;;;24.41;64.37
36254;BME280;22291;52.250;21.228;2023-09-19T08:22:49;99531.48;;;24.36;64.43
36254;BME280;22291;52.250;21.228;2023-09-19T08:25:24;99533.25;;;24.38;64.06
36254;BME280;22291;52.250;21.228;2023-09-19T08:27:52;99528.20;;;24.45;64.82
36254;BME280;22291;52.250;21.228;2023-09-19T08:30:20;99525.47;;;24.65;64.59
36254;BME280;22291;52.250;21.228;2023-09-19T08:32:58;99525.19;;;24.91;65.42
36254;BME280;22291;52.250;21.228;2023-09-19T08:35:30;99536.79;;;25.23;63.77
36254;BME280;22291;52.250;21.228;2023-09-19T08:37:57;99538.47;;;25.28;62.39
36254;BME280;22291;52.250;21.228;2023-09-19T08:40:25;99542.99;;;25.30;62.66
36254;BME280;22291;52.250;21.228;2023-09-19T08:42:55;99534.77;;;25.35;61.82
36254;BME280;22291;52.250;21.228;2023-09-19T08:45:25;99536.08;;;25.39;61.80
36254;BME280;22291;52.250;21.228;2023-09-19T08:48:20;99535.75;;;25.45;60.67
36254;BME280;22291;52.250;21.228;2023-09-19T08:50:57;99533.15;;;25.38;60.50
36254;BME280;22291;52.250;21.228;2023-09-19T08:56:21;99537.70;;;25.28;60.12
36254;BME280;22291;52.250;21.228;2023-09-19T08:58:55;99537.89;;;25.29;60.32
36254;BME280;22291;52.250;21.228;2023-09-19T09:01:30;99533.59;;;25.24;60.22
36254;BME280;22291;52.250;21.228;2023-09-19T09:03:59;99529.50;;;25.32;60.67
36254;BME280;22291;52.250;21.228;2023-09-19T09:06:28;99528.30;;;25.42;60.34
36254;BME280;22291;52.250;21.228;2023-09-19T09:08:59;99529.17;;;25.47;59.89
36254;BME280;22291;52.250;21.228;2023-09-19T09:11:26;99532.83;;;25.44;59.69
36254;BME280;22291;52.250;21.228;2023-09-19T09:13:55;99535.30;;;25.38;59.65
36254;BME280;22291;52.250;21.228;2023-09-19T09:16:22;99541.95;;;25.32;59.58
36254;BME280;22291;52.250;21.228;2023-09-19T09:18:50;99553.73;;;25.25;59.47
36254;BME280;22291;52.250;21.228;2023-09-19T09:21:18;99550.59;;;25.14;59.33
36254;BME280;22291;52.250;21.228;2023-09-19T09:23:48;99552.20;;;25.04;59.33
36254;BME280;22291;52.250;21.228;2023-09-19T09:27:02;99558.72;;;24.93;59.44
36254;BME280;22291;52.250;21.228;2023-09-19T09:29:01;99559.36;;;24.81;59.64
36254;BME280;22291;52.250;21.228;2023-09-19T09:31:28;99565.33;;;24.68;59.45
36254;BME280;22291;52.250;21.228;2023-09-19T09:33:57;99566.56;;;24.51;59.74
36254;BME280;22291;52.250;21.228;2023-09-19T09:36:38;99567.95;;;24.39;60.07
36254;BME280;22291;52.250;21.228;2023-09-19T09:39:08;99577.14;;;24.33;60.50
36254;BME280;22291;52.250;21.228;2023-09-19T09:41:45;99579.31;;;24.21;60.34
36254;BME280;22291;52.250;21.228;2023-09-19T09:44:17;99584.28;;;24.07;60.43
36254;BME280;22291;52.250;21.228;2023-09-19T09:46:45;99581.86;;;23.97;60.64
36254;BME280;22291;52.250;21.228;2023-09-19T09:49:23;99578.66;;;23.86;60.88
36254;BME280;22291;52.250;21.228;2023-09-19T09:52:06;99583.90;;;23.77;61.30
36254;BME280;22291;52.250;21.228;2023-09-19T09:54:36;99585.91;;;23.73;61.72
36254;BME280;22291;52.250;21.228;2023-09-19T09:57:10;99590.71;;;23.69;61.86
36254;BME280;22291;52.250;21.228;2023-09-19T09:59:54;99592.36;;;23.63;62.00
36254;BME280;22291;52.250;21.228;2023-09-19T10:02:35;99595.78;;;23.59;62.24
36254;BME280;22291;52.250;21.228;2023-09-19T10:05:18;99593.53;;;23.50;62.19
36254;BME280;22291;52.250;21.228;2023-09-19T10:07:50;99595.63;;;23.39;62.31
36254;BME280;22291;52.250;21.228;2023-09-19T10:10:34;99607.78;;;23.29;62.56
36254;BME280;22291;52.250;21.228;2023-09-19T10:13:11;99600.81;;;23.18;62.81
36254;BME280;22291;52.250;21.228;2023-09-19T10:15:47;99615.09;;;23.05;63.16
36254;BME280;22291;52.250;21.228;2023-09-19T10:18:24;99608.59;;;22.88;63.19
36254;BME280;22291;52.250;21.228;2023-09-19T10:20:52;99623.67;;;22.77;63.84
36254;BME280;22291;52.250;21.228;2023-09-19T10:23:20;99627.31;;;22.66;64.48
36254;BME280;22291;52.250;21.228;2023-09-19T10:25:50;99635.08;;;22.52;64.78
36254;BME280;22291;52.250;21.228;2023-09-19T10:28:18;99642.70;;;22.37;65.54
36254;BME280;22291;52.250;21.228;2023-09-19T10:30:50;99641.00;;;22.21;66.25
36254;BME280;22291;52.250;21.228;2023-09-19T10:33:21;99660.19;;;22.06;66.73
36254;BME280;22291;52.250;21.228;2023-09-19T10:35:52;99657.31;;;21.90;67.91
36254;BME280;22291;52.250;21.228;2023-09-19T10:38:26;99646.38;;;21.72;68.59
36254;BME280;22291;52.250;21.228;2023-09-19T10:40:56;99646.08;;;21.56;69.44
36254;BME280;22291;52.250;21.228;2023-09-19T10:43:30;99643.55;;;21.42;70.17
36254;BME280;22291;52.250;21.228;2023-09-19T10:46:06;99648.09;;;21.34;70.84
36254;BME280;22291;52.250;21.228;2023-09-19T10:48:32;99648.91;;;21.23;71.23
36254;BME280;22291;52.250;21.228;2023-09-19T10:51:11;99651.67;;;21.13;71.88
36254;BME280;22291;52.250;21.228;2023-09-19T10:53:48;99650.91;;;21.05;72.81
36254;BME280;22291;52.250;21.228;2023-09-19T10:56:32;99649.53;;;20.94;73.15
36254;BME280;22291;52.250;21.228;2023-09-19T10:59:14;99652.30;;;20.87;73.98
36254;BME280;22291;52.250;21.228;2023-09-19T11:01:46;99649.18;;;20.78;74.57
36254;BME280;22291;52.250;21.228;2023-09-19T11:04:31;99640.94;;;20.74;75.43
36254;BME280;22291;52.250;21.228;2023-09-19T11:07:11;99646.45;;;20.70;75.58
36254;BME280;22291;52.250;21.228;2023-09-19T11:09:51;99642.30;;;20.67;76.26
36254;BME280;22291;52.250;21.228;2023-09-19T11:15:03;99632.88;;;20.61;77.64
36254;BME280;22291;52.250;21.228;2023-09-19T11:25:42;99629.34;;;20.60;80.26
36254;BME280;22291;52.250;21.228;2023-09-19T11:28:28;99634.86;;;20.64;80.52
36254;BME280;22291;52.250;21.228;2023-09-19T11:30:57;99639.16;;;20.68;81.12
36254;BME280;22291;52.250;21.228;2023-09-19T11:33:33;99646.03;;;20.68;81.09
36254;BME280;22291;52.250;21.228;2023-09-19T11:36:11;99646.84;;;20.65;81.09
36254;BME280;22291;52.250;21.228;2023-09-19T11:46:33;99656.61;;;20.52;81.84
36254;BME280;22291;52.250;21.228;2023-09-19T11:49:09;99658.17;;;20.53;82.40
36254;BME280;22291;52.250;21.228;2023-09-19T11:51:43;99654.26;;;20.54;82.83
36254;BME280;22291;52.250;21.228;2023-09-19T11:54:11;99648.38;;;20.56;82.86
36254;BME280;22291;52.250;21.228;2023-09-19T11:56:50;99650.14;;;20.50;82.84
36254;BME280;22291;52.250;21.228;2023-09-19T11:59:22;99654.05;;;20.53;83.37
36254;BME280;22291;52.250;21.228;2023-09-19T12:01:52;99648.16;;;20.51;83.53
36254;BME280;22291;52.250;21.228;2023-09-19T12:04:22;99650.31;;;20.51;83.41
36254;BME280;22291;52.250;21.228;2023-09-19T12:07:06;99648.77;;;20.54;83.98
36254;BME280;22291;52.250;21.228;2023-09-19T12:09:47;99655.63;;;20.54;83.70
36254;BME280;22291;52.250;21.228;2023-09-19T12:12:26;99654.46;;;20.55;84.03
36254;BME280;22291;52.250;21.228;2023-09-19T12:14:56;99655.24;;;20.56;84.15
36254;BME280;22291;52.250;21.228;2023-09-19T12:17:38;99654.05;;;20.57;84.27
36254;BME280;22291;52.250;21.228;2023-09-19T12:20:11;99662.50;;;20.54;84.28
36254;BME280;22291;52.250;21.228;2023-09-19T12:22:43;99667.61;;;20.48;83.91
36254;BME280;22291;52.250;21.228;2023-09-19T12:25:16;99677.61;;;20.43;84.08
36254;BME280;22291;52.250;21.228;2023-09-19T12:27:46;99678.00;;;20.42;84.50
36254;BME280;22291;52.250;21.228;2023-09-19T12:30:17;99675.64;;;20.40;85.03
36254;BME280;22291;52.250;21.228;2023-09-19T12:32:46;99685.64;;;20.42;85.14
36254;BME280;22291;52.250;21.228;2023-09-19T12:35:29;99682.30;;;20.43;85.65
36254;BME280;22291;52.250;21.228;2023-09-19T12:37:59;99685.84;;;20.43;85.72
36254;BME280;22291;52.250;21.228;2023-09-19T12:40:28;99685.84;;;20.43;86.07
36254;BME280;22291;52.250;21.228;2023-09-19T12:42:55;99685.25;;;20.44;86.08
36254;BME280;22291;52.250;21.228;2023-09-19T12:45:29;99694.09;;;20.43;85.94
36254;BME280;22291;52.250;21.228;2023-09-19T12:48:22;99699.76;;;20.44;86.13
36254;BME280;22291;52.250;21.228;2023-09-19T12:51:08;99701.34;;;20.45;86.50
36254;BME280;22291;52.250;21.228;2023-09-19T12:53:44;99705.08;;;20.47;86.65
36254;BME280;22291;52.250;21.228;2023-09-19T12:56:16;99694.48;;;20.49;86.98
36254;BME280;22291;52.250;21.228;2023-09-19T12:58:52;99698.00;;;20.46;86.89
36254;BME280;22291;52.250;21.228;2023-09-19T13:01:27;99705.46;;;20.49;87.36
36254;BME280;22291;52.250;21.228;2023-09-19T13:04:18;99703.70;;;20.50;87.32
36254;BME280;22291;52.250;21.228;2023-09-19T13:06:51;99705.47;;;20.52;87.56
36254;BME280;22291;52.250;21.228;2023-09-19T13:09:22;99699.38;;;20.53;87.55
36254;BME280;22291;52.250;21.228;2023-09-19T13:11:54;99696.63;;;20.53;87.31
36254;BME280;22291;52.250;21.228;2023-09-19T13:14:26;99697.02;;;20.51;87.08
36254;BME280;22291;52.250;21.228;2023-09-19T13:17:01;99696.84;;;20.54;87.76
36254;BME280;22291;52.250;21.228;2023-09-19T13:19:38;99693.70;;;20.56;87.51
36254;BME280;22291;52.250;21.228;2023-09-19T13:22:42;99690.36;;;20.56;87.68
36254;BME280;22291;52.250;21.228;2023-09-19T13:25:18;99690.36;;;20.56;87.11
36254;BME280;22291;52.250;21.228;2023-09-19T13:27:51;99692.72;;;20.58;87.30
36254;BME280;22291;52.250;21.228;2023-09-19T13:30:23;99692.12;;;20.58;87.34
36254;BME280;22291;52.250;21.228;2023-09-19T13:33:03;99696.45;;;20.59;87.24
36254;BME280;22291;52.250;21.228;2023-09-19T13:35:38;99694.69;;;20.61;87.27
36254;BME280;22291;52.250;21.228;2023-09-19T13:38:09;99695.10;;;20.63;87.78
36254;BME280;22291;52.250;21.228;2023-09-19T13:40:39;99694.33;;;20.66;87.35
36254;BME280;22291;52.250;21.228;2023-09-19T13:43:08;99697.07;;;20.66;87.26